createdAt,value
2023-01-17T00:01:49.803Z,62.95
2023-01-17T00:04:35.660Z,63.43
2023-01-17T00:07:21.284Z,63.45
2023-01-17T00:09:54.415Z,64.10
2023-01-17T00:12:22.078Z,64.23
2023-01-17T00:14:49.165Z,64.31
2023-01-17T00:17:16.359Z,64.74
2023-01-17T00:20:01.798Z,64.70
2023-01-17T00:22:48.745Z,64.82
2023-01-17T00:25:36.810Z,64.59
2023-01-17T00:28:05.325Z,64.82
2023-01-17T00:30:32.919Z,65.33
2023-01-17T00:33:00.168Z,65.28
2023-01-17T00:35:28.720Z,65.08
2023-01-17T00:38:06.724Z,65.50
2023-01-17T00:40:35.017Z,65.71
2023-01-17T00:43:20.985Z,65.41
2023-01-17T00:46:07.000Z,65.87
2023-01-17T00:48:53.598Z,66.20
2023-01-17T00:51:39.962Z,66.33
2023-01-17T00:54:26.557Z,66.95
2023-01-17T00:57:12.751Z,66.85
2023-01-17T00:59:58.218Z,67.05
2023-01-17T01:02:44.963Z,67.22
2023-01-17T01:05:31.971Z,66.99
2023-01-17T01:08:18.345Z,67.60
2023-01-17T01:11:05.972Z,67.60
2023-01-17T01:13:52.893Z,67.42
2023-01-17T01:16:39.305Z,67.95
2023-01-17T01:19:25.125Z,67.40
2023-01-17T01:22:11.177Z,67.66
2023-01-17T01:24:56.909Z,67.24
2023-01-17T01:27:42.847Z,67.08
2023-01-17T01:30:29.228Z,67.15
2023-01-17T01:33:14.936Z,66.88
2023-01-17T01:35:42.983Z,66.55
2023-01-17T01:38:10.122Z,66.73
2023-01-17T01:40:42.819Z,66.57
2023-01-17T01:43:12.818Z,66.65
2023-01-17T01:45:40.878Z,67.12
2023-01-17T01:48:18.000Z,66.95
2023-01-17T01:50:45.345Z,67.38
2023-01-17T01:53:12.548Z,67.19
2023-01-17T01:55:41.485Z,67.24
2023-01-17T01:58:21.016Z,67.45
2023-01-17T02:00:48.597Z,67.58
2023-01-17T02:03:21.130Z,67.33
2023-01-17T02:05:48.314Z,67.65
2023-01-17T02:08:17.791Z,67.90
2023-01-17T02:10:45.216Z,67.70
2023-01-17T02:13:16.210Z,67.24
2023-01-17T02:16:20.126Z,67.30
2023-01-17T02:19:14.296Z,67.22
2023-01-17T02:21:54.089Z,67.43
2023-01-17T02:24:42.967Z,67.91
2023-01-17T02:27:25.678Z,67.38
2023-01-17T02:30:26.200Z,67.57
2023-01-17T02:33:03.745Z,67.63
2023-01-17T02:35:52.386Z,67.59
2023-01-17T02:38:44.375Z,67.70
2023-01-17T02:41:17.662Z,67.64
2023-01-17T02:43:44.716Z,67.60
2023-01-17T02:46:11.879Z,68.07
2023-01-17T02:48:39.319Z,68.16
2023-01-17T02:51:20.813Z,68.19
2023-01-17T02:54:06.574Z,68.21
2023-01-17T02:57:05.508Z,68.16
2023-01-17T02:59:44.891Z,68.19
2023-01-17T03:02:14.907Z,68.19
2023-01-17T03:04:54.300Z,68.55
2023-01-17T03:07:24.781Z,68.58
2023-01-17T03:09:56.240Z,68.65
2023-01-17T03:12:27.412Z,68.37
2023-01-17T03:14:54.544Z,68.45
2023-01-17T03:17:23.235Z,68.40
2023-01-17T03:19:50.281Z,68.25
2023-01-17T03:22:17.333Z,68.23
2023-01-17T03:24:44.382Z,68.50
2023-01-17T03:27:11.461Z,68.54
2023-01-17T03:29:38.486Z,68.41
2023-01-17T03:32:05.892Z,68.43
2023-01-17T03:34:32.956Z,68.22
2023-01-17T03:37:00.045Z,68.25
2023-01-17T03:39:27.076Z,68.29
2023-01-17T03:41:54.165Z,68.28
2023-01-17T03:44:21.224Z,68.10
2023-01-17T03:46:48.258Z,68.40
2023-01-17T03:49:16.662Z,68.03
2023-01-17T03:51:43.743Z,68.55
2023-01-17T03:54:10.792Z,68.49
2023-01-17T03:56:37.932Z,68.67
2023-01-17T03:59:05.189Z,68.46
2023-01-17T04:01:32.394Z,68.07
2023-01-17T04:03:59.857Z,68.13
2023-01-17T04:06:28.431Z,68.08
2023-01-17T04:08:55.612Z,68.03
2023-01-17T04:11:22.628Z,68.34
2023-01-17T04:13:49.839Z,68.26
2023-01-17T04:16:17.805Z,68.21
2023-01-17T04:18:44.887Z,67.96
2023-01-17T04:21:11.914Z,68.04
2023-01-17T04:23:38.992Z,68.04
2023-01-17T04:26:06.308Z,67.73
2023-01-17T04:28:33.413Z,68.06
2023-01-17T04:31:00.571Z,67.44
2023-01-17T04:33:27.664Z,67.13
2023-01-17T04:35:54.770Z,67.45
2023-01-17T04:38:23.255Z,67.31
2023-01-17T04:40:51.017Z,67.41
2023-01-17T04:43:18.165Z,67.30
2023-01-17T04:45:45.202Z,67.71
2023-01-17T04:48:12.872Z,68.13
2023-01-17T04:50:39.932Z,68.30
2023-01-17T04:53:07.161Z,68.16
2023-01-17T04:55:34.249Z,68.07
2023-01-17T04:58:01.312Z,67.94
2023-01-17T05:00:28.459Z,68.23
2023-01-17T05:02:55.618Z,68.05
2023-01-17T05:05:22.872Z,67.92
2023-01-17T05:07:54.537Z,67.95
2023-01-17T05:10:21.812Z,67.91
2023-01-17T05:12:54.303Z,67.82
2023-01-17T05:15:21.880Z,68.41
2023-01-17T05:17:49.030Z,67.96
2023-01-17T05:20:16.179Z,68.24
2023-01-17T05:22:43.530Z,68.16
2023-01-17T05:25:10.618Z,68.28
2023-01-17T05:27:37.712Z,68.26
2023-01-17T05:30:05.485Z,68.24
2023-01-17T05:32:32.686Z,68.20
2023-01-17T05:34:59.739Z,68.27
2023-01-17T05:37:26.771Z,68.17
2023-01-17T05:39:53.829Z,68.47
2023-01-17T05:42:20.856Z,68.73
2023-01-17T05:44:47.896Z,68.00
2023-01-17T05:47:14.954Z,68.27
2023-01-17T05:49:43.850Z,67.89
2023-01-17T05:52:12.315Z,68.15
2023-01-17T05:54:39.368Z,67.98
2023-01-17T05:57:06.378Z,68.22
2023-01-17T05:59:37.374Z,68.36
2023-01-17T06:02:04.699Z,68.10
2023-01-17T06:04:31.907Z,68.38
2023-01-17T06:06:58.969Z,68.36
2023-01-17T06:09:26.002Z,68.36
2023-01-17T06:11:53.049Z,68.32
2023-01-17T06:14:20.131Z,68.71
2023-01-17T06:16:47.845Z,68.55
2023-01-17T06:19:14.863Z,68.49
2023-01-17T06:21:41.933Z,68.61
2023-01-17T06:24:08.967Z,68.71
2023-01-17T06:26:35.985Z,68.95
2023-01-17T06:29:03.035Z,69.46
2023-01-17T06:31:30.127Z,69.60
2023-01-17T06:33:57.214Z,70.32
2023-01-17T06:36:24.347Z,70.60
2023-01-17T06:38:51.364Z,71.07
2023-01-17T06:41:18.418Z,71.14
2023-01-17T06:43:45.453Z,71.76
2023-01-17T06:46:12.504Z,71.39
2023-01-17T06:48:39.607Z,71.44
2023-01-17T06:51:06.614Z,71.25
2023-01-17T06:53:33.651Z,71.16
2023-01-17T06:56:00.952Z,71.09
2023-01-17T06:58:28.086Z,71.00
2023-01-17T07:00:55.193Z,70.47
2023-01-17T07:03:24.592Z,70.41
2023-01-17T07:05:53.136Z,70.43
2023-01-17T07:08:20.418Z,69.88
2023-01-17T07:10:47.992Z,69.77
2023-01-17T07:13:15.205Z,69.38
2023-01-17T07:15:42.320Z,69.64
2023-01-17T07:18:09.410Z,69.30
2023-01-17T07:20:36.500Z,69.36
2023-01-17T07:23:03.806Z,69.26
2023-01-17T07:25:30.843Z,69.43
2023-01-17T07:27:58.082Z,69.47
2023-01-17T07:30:25.333Z,69.25
2023-01-17T07:32:53.460Z,68.78
2023-01-17T07:35:21.538Z,68.64
2023-01-17T07:37:49.647Z,68.47
2023-01-17T07:40:17.722Z,68.32
2023-01-17T07:42:45.159Z,68.32
2023-01-17T07:45:13.466Z,67.86
2023-01-17T07:47:40.555Z,67.90
2023-01-17T07:50:08.373Z,67.65
2023-01-17T07:52:35.381Z,67.56
2023-01-17T07:55:02.458Z,67.56
2023-01-17T07:57:29.565Z,67.65
2023-01-17T07:59:56.638Z,67.67
2023-01-17T08:02:23.797Z,67.60
2023-01-17T08:04:50.881Z,67.27
2023-01-17T08:07:18.065Z,67.17
2023-01-17T08:09:49.514Z,67.35
2023-01-17T08:12:16.727Z,67.24
2023-01-17T08:14:43.816Z,66.99
2023-01-17T08:17:16.328Z,66.90
2023-01-17T08:19:44.725Z,67.09
2023-01-17T08:22:12.331Z,66.56
2023-01-17T08:24:39.404Z,66.21
2023-01-17T08:27:06.594Z,66.13
2023-01-17T08:29:33.624Z,65.48
2023-01-17T08:32:00.670Z,65.18
2023-01-17T08:34:27.697Z,65.30
2023-01-17T08:36:54.911Z,64.61
2023-01-17T08:39:22.096Z,65.24
2023-01-17T08:41:49.207Z,65.09
2023-01-17T08:44:16.377Z,65.16
2023-01-17T08:46:44.159Z,65.07
2023-01-17T08:49:12.045Z,64.42
2023-01-17T08:51:39.646Z,64.01
2023-01-17T08:54:06.820Z,64.01
2023-01-17T08:56:35.210Z,64.27
2023-01-17T08:59:03.044Z,64.28
2023-01-17T09:01:30.518Z,63.65
2023-01-17T09:03:57.710Z,63.55
2023-01-17T09:06:24.849Z,62.72
2023-01-17T09:08:52.234Z,62.37
2023-01-17T09:11:19.273Z,61.92
2023-01-17T09:13:46.327Z,61.81
2023-01-17T09:16:13.409Z,61.27
2023-01-17T09:18:40.454Z,61.25
2023-01-17T09:21:11.700Z,60.70
2023-01-17T09:23:38.765Z,60.83
2023-01-17T09:26:05.972Z,61.10
2023-01-17T09:28:40.891Z,60.72
2023-01-17T09:31:08.882Z,60.98
2023-01-17T09:33:37.953Z,60.51
2023-01-17T09:36:05.534Z,59.61
2023-01-17T09:38:32.936Z,59.64
2023-01-17T09:41:01.655Z,59.02
2023-01-17T09:43:43.933Z,58.14
2023-01-17T09:46:22.765Z,57.70
2023-01-17T09:48:53.950Z,58.29
2023-01-17T09:51:24.452Z,58.19
2023-01-17T09:53:52.754Z,58.59
2023-01-17T09:56:25.025Z,58.23
2023-01-17T09:59:19.332Z,57.35
2023-01-17T10:02:16.869Z,57.50
2023-01-17T10:05:01.508Z,57.33
2023-01-17T10:07:38.977Z,57.40
2023-01-17T10:10:17.128Z,56.81
2023-01-17T10:13:05.552Z,56.27
2023-01-17T10:15:47.298Z,56.20
2023-01-17T10:18:29.657Z,55.83
2023-01-17T10:21:36.019Z,55.39
2023-01-17T10:24:22.233Z,55.52
2023-01-17T10:26:53.334Z,55.55
2023-01-17T10:29:21.612Z,55.77
2023-01-17T10:31:55.756Z,55.96
2023-01-17T10:34:55.352Z,55.78
2023-01-17T10:37:40.943Z,55.52
2023-01-17T10:40:19.782Z,55.13
2023-01-17T10:42:56.185Z,55.47
2023-01-17T10:45:28.374Z,55.32
2023-01-17T10:48:04.879Z,56.00
2023-01-17T10:50:38.674Z,55.92
2023-01-17T10:53:11.012Z,55.57
2023-01-17T10:55:53.297Z,55.85
2023-01-17T10:58:20.469Z,54.93
2023-01-17T11:00:57.566Z,55.57
2023-01-17T11:03:25.699Z,54.53
2023-01-17T11:06:15.629Z,53.80
2023-01-17T11:08:53.965Z,53.45
2023-01-17T11:11:24.212Z,53.36
2023-01-17T11:13:53.554Z,52.89
2023-01-17T11:16:25.065Z,52.74
2023-01-17T11:19:11.669Z,51.93
2023-01-17T11:21:39.689Z,53.14
2023-01-17T11:24:12.259Z,51.75
2023-01-17T11:26:47.479Z,51.02
2023-01-17T11:29:37.758Z,52.66
2023-01-17T11:32:22.909Z,50.87
2023-01-17T11:35:12.920Z,51.41
2023-01-17T11:38:02.634Z,51.61
2023-01-17T11:40:38.769Z,51.55
2023-01-17T11:43:11.854Z,52.40
2023-01-17T11:45:39.890Z,52.94
2023-01-17T11:48:11.352Z,52.65
2023-01-17T11:50:55.300Z,52.90
2023-01-17T11:53:23.905Z,52.88
2023-01-17T11:56:03.012Z,52.73
2023-01-17T11:58:30.707Z,53.11
2023-01-17T12:01:17.994Z,53.74
2023-01-17T12:03:50.753Z,54.07
2023-01-17T12:06:33.578Z,52.86
2023-01-17T12:09:26.060Z,53.53
2023-01-17T12:12:24.777Z,52.92
2023-01-17T12:15:06.394Z,53.69
2023-01-17T12:17:53.211Z,52.93
2023-01-17T12:21:03.088Z,52.41
2023-01-17T12:23:58.744Z,52.13
2023-01-17T12:26:45.747Z,51.55
2023-01-17T12:29:20.404Z,51.27
2023-01-17T12:32:05.697Z,51.85
2023-01-17T12:34:51.195Z,51.53
2023-01-17T12:37:22.408Z,51.72
2023-01-17T12:40:03.605Z,52.30
2023-01-17T12:42:37.510Z,52.17
2023-01-17T12:45:08.005Z,50.73
2023-01-17T12:47:40.430Z,50.04
2023-01-17T12:50:28.730Z,50.18
2023-01-17T12:53:03.867Z,50.18
2023-01-17T12:55:47.678Z,50.21
2023-01-17T12:58:20.706Z,50.50
2023-01-17T13:00:51.706Z,50.52
2023-01-17T13:03:43.467Z,50.67
2023-01-17T13:06:20.010Z,50.73
2023-01-17T13:08:49.747Z,51.04
2023-01-17T13:11:28.617Z,49.52
2023-01-17T13:13:57.587Z,50.28
2023-01-17T13:16:33.531Z,50.21
2023-01-17T13:19:06.992Z,50.64
2023-01-17T13:21:35.301Z,50.34
2023-01-17T13:24:15.955Z,49.91
2023-01-17T13:26:54.917Z,50.21
2023-01-17T13:29:45.063Z,50.02
2023-01-17T13:32:22.597Z,49.22
2023-01-17T13:35:06.253Z,49.45
2023-01-17T13:38:01.913Z,49.49
2023-01-17T13:40:37.040Z,49.79
2023-01-17T13:43:06.045Z,49.63
2023-01-17T13:45:35.093Z,49.21
2023-01-17T13:48:18.179Z,48.97
2023-01-17T13:51:05.438Z,49.01
2023-01-17T13:53:35.526Z,48.77
2023-01-17T13:56:31.401Z,48.95
2023-01-17T13:59:02.802Z,49.58
2023-01-17T14:01:34.724Z,49.29
2023-01-17T14:04:05.607Z,49.11
2023-01-17T14:06:35.863Z,48.94
2023-01-17T14:09:21.580Z,49.10
2023-01-17T14:12:10.528Z,49.78
2023-01-17T14:14:40.311Z,50.03
2023-01-17T14:17:16.466Z,49.79
2023-01-17T14:19:47.749Z,50.22
2023-01-17T14:22:21.000Z,50.30
2023-01-17T14:25:15.554Z,49.96
2023-01-17T14:27:42.607Z,50.23
2023-01-17T14:30:25.997Z,50.53
2023-01-17T14:32:59.341Z,51.20
2023-01-17T14:35:37.587Z,50.80
2023-01-17T14:38:16.212Z,50.18
2023-01-17T14:40:59.276Z,50.54
2023-01-17T14:43:28.607Z,51.04
2023-01-17T14:45:58.577Z,51.14
2023-01-17T14:48:26.180Z,50.87
2023-01-17T14:50:57.227Z,50.95
2023-01-17T14:53:28.995Z,51.31
2023-01-17T14:55:57.660Z,51.34
2023-01-17T14:58:27.149Z,51.73
2023-01-17T15:01:23.787Z,51.97
2023-01-17T15:03:54.252Z,51.79
2023-01-17T15:06:38.716Z,51.66
2023-01-17T15:09:16.776Z,52.09
2023-01-17T15:11:44.764Z,52.29
2023-01-17T15:14:18.913Z,52.64
2023-01-17T15:16:46.091Z,52.86
2023-01-17T15:19:14.506Z,52.82
2023-01-17T15:21:43.227Z,52.69
2023-01-17T15:24:19.881Z,52.69
2023-01-17T15:26:47.593Z,53.11
2023-01-17T15:29:25.209Z,53.19
2023-01-17T15:31:54.231Z,53.49
2023-01-17T15:34:38.140Z,53.78
2023-01-17T15:37:21.625Z,53.77
2023-01-17T15:39:48.865Z,53.54
2023-01-17T15:42:24.231Z,53.73
2023-01-17T15:44:55.997Z,54.47
2023-01-17T15:47:40.325Z,54.34
2023-01-17T15:50:29.943Z,55.19
2023-01-17T15:53:00.795Z,54.64
2023-01-17T15:55:38.810Z,55.08
2023-01-17T15:58:23.962Z,55.98
2023-01-17T16:00:51.340Z,55.94
2023-01-17T16:03:27.405Z,56.02
2023-01-17T16:05:57.620Z,56.47
2023-01-17T16:08:38.759Z,56.36
2023-01-17T16:11:07.303Z,56.93
2023-01-17T16:13:38.571Z,57.10
2023-01-17T16:16:25.153Z,56.54
2023-01-17T16:18:58.763Z,56.67
2023-01-17T16:21:30.809Z,57.18
2023-01-17T16:23:59.132Z,57.46
2023-01-17T16:26:26.275Z,57.73
2023-01-17T16:28:53.893Z,57.65
2023-01-17T16:31:21.154Z,58.14
2023-01-17T16:33:52.203Z,58.11
2023-01-17T16:36:20.883Z,58.50
2023-01-17T16:38:49.683Z,58.26
2023-01-17T16:41:16.806Z,59.18
2023-01-17T16:43:44.446Z,59.68
2023-01-17T16:46:11.999Z,59.16
2023-01-17T16:48:39.064Z,59.57
2023-01-17T16:51:08.747Z,60.22
2023-01-17T16:53:36.907Z,60.75
2023-01-17T16:56:13.177Z,60.67
2023-01-17T16:58:40.885Z,60.22
2023-01-17T17:01:17.838Z,60.00
2023-01-17T17:03:45.297Z,60.68
2023-01-17T17:06:12.772Z,60.98
2023-01-17T17:08:39.874Z,61.55
2023-01-17T17:11:15.249Z,61.56
2023-01-17T17:13:44.396Z,61.71
2023-01-17T17:16:16.045Z,62.44
2023-01-17T17:18:44.203Z,61.88
2023-01-17T17:21:11.531Z,61.59
2023-01-17T17:23:39.077Z,61.96
2023-01-17T17:26:06.357Z,62.50
2023-01-17T17:28:33.439Z,63.34
2023-01-17T17:31:10.469Z,62.92
2023-01-17T17:33:38.729Z,63.64
2023-01-17T17:36:07.856Z,63.56
2023-01-17T17:38:35.071Z,63.96
2023-01-17T17:41:09.716Z,63.17
2023-01-17T17:43:41.320Z,63.53
2023-01-17T17:46:08.482Z,63.90
2023-01-17T17:48:36.083Z,64.22
2023-01-17T17:51:04.008Z,63.91
2023-01-17T17:53:31.216Z,64.77
2023-01-17T17:56:05.557Z,64.50
2023-01-17T17:58:33.986Z,64.43
2023-01-17T18:01:05.747Z,64.57
2023-01-17T18:03:33.337Z,64.92
2023-01-17T18:06:04.671Z,65.34
2023-01-17T18:08:32.426Z,64.83
2023-01-17T18:11:04.959Z,65.54
2023-01-17T18:13:32.383Z,65.04
2023-01-17T18:16:07.801Z,65.65
2023-01-17T18:18:36.444Z,65.62
2023-01-17T18:21:09.371Z,65.43
2023-01-17T18:23:41.262Z,65.53
2023-01-17T18:26:17.205Z,65.90
2023-01-17T18:28:44.389Z,65.98
2023-01-17T18:31:11.884Z,65.59
2023-01-17T18:33:39.711Z,65.29
2023-01-17T18:36:08.707Z,65.93
2023-01-17T18:38:40.545Z,66.21
2023-01-17T18:41:09.775Z,65.75
2023-01-17T18:43:37.176Z,66.22
2023-01-17T18:46:04.963Z,66.30
2023-01-17T18:48:32.080Z,66.62
2023-01-17T18:51:01.918Z,66.42
2023-01-17T18:53:30.993Z,66.88
2023-01-17T18:56:01.741Z,66.75
2023-01-17T18:58:31.176Z,66.78
2023-01-17T19:01:10.533Z,66.46
2023-01-17T19:03:38.894Z,66.96
2023-01-17T19:06:07.278Z,66.73
2023-01-17T19:08:34.952Z,67.22
2023-01-17T19:11:04.248Z,66.91
2023-01-17T19:13:32.652Z,66.68
2023-01-17T19:16:01.045Z,67.42
2023-01-17T19:18:28.310Z,67.13
2023-01-17T19:20:55.870Z,66.99
2023-01-17T19:23:23.187Z,67.36
2023-01-17T19:25:54.861Z,67.73
2023-01-17T19:28:22.147Z,68.24
2023-01-17T19:30:49.502Z,68.42
2023-01-17T19:33:16.568Z,68.32
2023-01-17T19:35:43.685Z,68.80
2023-01-17T19:38:10.766Z,68.90
2023-01-17T19:40:38.001Z,68.69
2023-01-17T19:43:05.325Z,68.59
2023-01-17T19:45:32.459Z,68.93
2023-01-17T19:47:59.498Z,69.08
2023-01-17T19:50:26.545Z,68.83
2023-01-17T19:52:53.954Z,69.04
2023-01-17T19:55:25.593Z,68.88
2023-01-17T19:57:52.708Z,68.91
2023-01-17T20:00:22.905Z,69.14
2023-01-17T20:02:54.586Z,69.84
2023-01-17T20:05:21.641Z,69.59
2023-01-17T20:07:48.702Z,69.51
2023-01-17T20:10:16.112Z,69.16
2023-01-17T20:12:43.180Z,69.23
2023-01-17T20:15:10.569Z,69.02
2023-01-17T20:17:37.617Z,69.00
2023-01-17T20:20:06.809Z,68.70
2023-01-17T20:22:33.873Z,68.57
2023-01-17T20:25:00.960Z,69.40
2023-01-17T20:27:28.096Z,69.30
2023-01-17T20:29:55.520Z,69.22
2023-01-17T20:32:23.052Z,69.53
2023-01-17T20:34:51.277Z,69.37
2023-01-17T20:37:21.428Z,69.43
2023-01-17T20:39:48.507Z,69.71
2023-01-17T20:42:15.722Z,69.69
2023-01-17T20:44:42.786Z,69.84
2023-01-17T20:47:09.862Z,70.19
2023-01-17T20:49:37.057Z,70.28
2023-01-17T20:52:06.141Z,70.13
2023-01-17T20:54:33.339Z,69.91
2023-01-17T20:57:00.408Z,69.88
2023-01-17T20:59:27.678Z,70.22
2023-01-17T21:01:54.841Z,70.36
2023-01-17T21:04:25.821Z,70.15
2023-01-17T21:06:53.409Z,70.12
2023-01-17T21:09:21.347Z,70.92
2023-01-17T21:11:48.571Z,70.66
2023-01-17T21:14:15.682Z,70.15
2023-01-17T21:16:42.787Z,70.37
2023-01-17T21:19:11.881Z,70.32
2023-01-17T21:21:39.148Z,70.10
2023-01-17T21:24:06.372Z,70.19
2023-01-17T21:26:33.512Z,70.39
2023-01-17T21:29:02.004Z,70.44
2023-01-17T21:31:33.386Z,70.18
2023-01-17T21:34:05.050Z,69.97
2023-01-17T21:36:34.539Z,70.09
2023-01-17T21:39:04.996Z,70.22
2023-01-17T21:41:35.326Z,70.51
2023-01-17T21:44:05.171Z,70.32
2023-01-17T21:46:32.317Z,70.41
2023-01-17T21:48:59.399Z,70.64
2023-01-17T21:51:46.441Z,71.04
2023-01-17T21:54:13.567Z,70.07
2023-01-17T21:56:59.267Z,70.25
2023-01-17T21:59:26.335Z,70.61
2023-01-17T22:01:53.551Z,71.07
2023-01-17T22:04:20.650Z,71.17
2023-01-17T22:06:47.732Z,70.67
2023-01-17T22:09:15.060Z,70.79
2023-01-17T22:11:42.135Z,70.40
2023-01-17T22:14:09.194Z,71.24
2023-01-17T22:16:36.266Z,70.96
2023-01-17T22:19:03.317Z,70.83
2023-01-17T22:21:30.368Z,70.95
2023-01-17T22:23:59.175Z,71.07
2023-01-17T22:26:28.773Z,70.82
2023-01-17T22:28:56.209Z,71.52
2023-01-17T22:31:27.152Z,71.23
2023-01-17T22:33:56.475Z,71.08
2023-01-17T22:36:23.623Z,71.62
2023-01-17T22:38:51.036Z,71.21
2023-01-17T22:41:23.128Z,71.55
2023-01-17T22:43:52.948Z,71.47
2023-01-17T22:46:22.995Z,70.89
2023-01-17T22:48:50.298Z,71.28
2023-01-17T22:51:18.758Z,71.55
2023-01-17T22:53:50.911Z,72.00
2023-01-17T22:56:21.325Z,71.75
2023-01-17T22:58:49.172Z,72.03
2023-01-17T23:01:18.437Z,72.20
2023-01-17T23:03:46.734Z,72.24
2023-01-17T23:06:22.251Z,72.38
2023-01-17T23:08:51.674Z,72.29
2023-01-17T23:11:43.594Z,72.26
2023-01-17T23:14:30.526Z,72.42
2023-01-17T23:17:20.901Z,72.41
2023-01-17T23:19:49.729Z,71.98
2023-01-17T23:22:20.961Z,72.00
2023-01-17T23:24:49.452Z,72.25
2023-01-17T23:27:36.488Z,72.36
2023-01-17T23:30:11.886Z,72.67
2023-01-17T23:32:40.956Z,72.58
2023-01-17T23:35:08.220Z,72.68
2023-01-17T23:37:53.698Z,72.61
2023-01-17T23:40:20.779Z,72.32
2023-01-17T23:43:06.629Z,72.16
2023-01-17T23:45:35.462Z,71.89
2023-01-17T23:48:05.403Z,71.92
2023-01-17T23:50:33.232Z,72.06
2023-01-17T23:53:00.458Z,72.14
2023-01-17T23:55:27.622Z,71.99
2023-01-17T23:57:54.905Z,71.53
